LiveATC.Net - Listen to live air traffic control over the Internet!


ICAO: YBRM  IATA: BME   Airport: Broome International Airport
City: Broome   State/Province: Western Australia
Country: Australia   Continent: Oceania
YBRM METAR Weather: YBRM 031230Z AUTO 28009KT 9999 // NCD 30/23 Q1008
YBRM Flight Activity (FlightAware)
YBRM Tower
Feed Status: DOWN
Last heard on: 2016-11-30 19:58:11 (2 days 17 hours 40 minutes ago)
YBRM Tower Audio Archives
FacilityFrequency
Broome Tower126.000

Feed sponsored by:

NOTICE

Unauthorized use prohibited. See LiveATC.net Terms of Service


Find LiveATC Audio Streams


Airport/ARTCC Code

Frequency
(e.g., 124.400, 128.75)
Site-wide search

Browse LiveATC Feeds
LiveATC Coverage Map
Top 50 LiveATC Feeds
Bad Weather Areas

LiveATC FAQ
Offer a LiveATC Feed
Contact LiveATC.net
Press Inquiries

LiveATC on iPhone
LiveATC on Android

Windows Phone
Windows 8/10

LiveATC Mobile
(Mobile browser)

ATC Audio Archives
Interesting Recordings

LiveATC Forums


Home Page
About LiveATC.net
Make a Donation
LiveATC Store

Terms of Use
Privacy Policy

Canadian Air Freqs

AIRMETs/SIGMETs

FAA Airport Status
Nat'l Airspace Status
Arrival Demand Charts


Server Software By:
Icecast.org
Liquidsoap